Time;durP1;ratioP1;P1;durP2;ratioP2;P2;SDS_P1;SDS_P2;PMS_P1;PMS_P2;Temp;Humidity;BMP_temperature;BMP_pressure;BME280_temperature;BME280_humidity;BME280_pressure;Samples;Min_cycle;Max_cycle;Signal;HPM_P1;HPM_P2
2023/03/28 00:01:46;;;;;;;2.30;1.10;;;10.20;47.90;;;;;;5092831;28;20211;-64
2023/03/28 00:04:13;;;;;;;0.90;0.80;;;10.20;48.40;;;;;;5089033;28;20200;-64
2023/03/28 00:06:44;;;;;;;1.33;1.03;;;10.10;48.50;;;;;;5094050;28;20679;-64
2023/03/28 00:09:11;;;;;;;1.23;1.00;;;10.00;47.70;;;;;;5088056;28;20308;-64
2023/03/28 00:11:38;;;;;;;1.10;0.97;;;10.00;47.30;;;;;;5095576;28;20224;-64
2023/03/28 00:14:07;;;;;;;1.17;0.87;;;10.00;47.30;;;;;;5090292;28;20533;-64
2023/03/28 00:16:36;;;;;;;1.20;1.10;;;9.90;46.90;;;;;;5092622;28;20199;-64
2023/03/28 00:19:08;;;;;;;2.87;0.90;;;9.80;47.40;;;;;;5088982;28;20196;-64
2023/03/28 00:21:40;;;;;;;1.27;0.93;;;9.80;47.70;;;;;;5092505;28;20212;-64
2023/03/28 00:24:12;;;;;;;0.90;0.90;;;9.80;48.30;;;;;;5091697;28;20282;-64
2023/03/28 00:26:41;;;;;;;1.20;0.90;;;9.80;48.80;;;;;;5091875;28;20292;-64
2023/03/28 00:29:19;;;;;;;1.50;1.17;;;9.70;49.10;;;;;;5092058;28;20344;-64
2023/03/28 00:31:48;;;;;;;1.40;1.10;;;9.60;49.90;;;;;;5083496;28;20195;-64
2023/03/28 00:34:16;;;;;;;0.93;0.80;;;9.50;50.50;;;;;;5090023;28;20192;-64
2023/03/28 00:36:43;;;;;;;2.63;0.90;;;9.50;51.50;;;;;;5092314;28;20208;-64
2023/03/28 00:39:10;;;;;;;2.37;0.93;;;9.40;52.40;;;;;;5090308;28;20291;-64
2023/03/28 00:41:40;;;;;;;1.20;1.00;;;9.30;53.60;;;;;;5091975;28;20211;-64
2023/03/28 00:44:45;;;;;;;0.80;0.80;;;9.20;53.70;;;;;;5092177;28;20196;-64
2023/03/28 00:47:24;;;;;;;1.43;1.00;;;9.10;53.50;;;;;;5083909;28;20205;-64
2023/03/28 00:49:59;;;;;;;0.90;0.90;;;8.90;53.30;;;;;;5085419;28;20201;-64
2023/03/28 00:52:29;;;;;;;3.80;0.90;;;8.80;54.00;;;;;;5092246;28;20203;-64
2023/03/28 00:54:58;;;;;;;1.17;1.00;;;8.70;54.20;;;;;;5091198;28;20203;-64
2023/03/28 00:57:26;;;;;;;0.97;0.73;;;8.60;55.10;;;;;;5091214;28;20196;-64
2023/03/28 00:59:54;;;;;;;1.27;0.93;;;8.60;55.70;;;;;;5088838;28;20201;-64
2023/03/28 01:02:22;;;;;;;1.33;0.80;;;8.50;55.40;;;;;;5093464;28;20295;-64
2023/03/28 01:04:59;;;;;;;3.27;1.30;;;8.40;55.10;;;;;;5091192;28;20205;-63
2023/03/28 01:07:32;;;;;;;1.17;0.80;;;8.30;54.50;;;;;;5093547;28;20201;-64
2023/03/28 01:10:00;;;;;;;1.40;0.90;;;8.20;54.20;;;;;;5092753;28;20210;-64
2023/03/28 01:12:27;;;;;;;1.50;1.00;;;8.10;54.70;;;;;;5088719;28;20205;-64
2023/03/28 01:14:56;;;;;;;1.20;1.10;;;8.00;55.50;;;;;;5081912;28;20618;-64
2023/03/28 01:17:24;;;;;;;0.80;0.80;;;8.00;56.10;;;;;;5085879;28;20284;-64
2023/03/28 01:20:05;;;;;;;1.63;0.83;;;8.00;56.70;;;;;;5083451;28;20208;-64
2023/03/28 01:23:03;;;;;;;1.60;0.90;;;7.90;57.20;;;;;;5091955;28;20593;-64
2023/03/28 01:25:50;;;;;;;4.10;0.80;;;7.90;56.50;;;;;;5105499;28;20623;-64
2023/03/28 01:28:23;;;;;;;2.83;0.90;;;7.70;56.00;;;;;;5089631;28;20217;-64
2023/03/28 01:31:19;;;;;;;1.87;0.93;;;7.60;56.80;;;;;;5092720;28;20276;-64
2023/03/28 01:35:00;;;;;;;1.67;0.97;;;7.40;57.50;;;;;;5067579;28;20198;-64
2023/03/28 01:37:50;;;;;;;0.93;0.93;;;7.20;59.30;;;;;;5086041;28;20664;-64
2023/03/28 01:40:36;;;;;;;0.83;0.80;;;7.10;59.70;;;;;;5090465;28;20317;-63
2023/03/28 01:43:29;;;;;;;1.50;0.93;;;7.10;58.60;;;;;;5085248;28;20241;-64
2023/03/28 01:46:20;;;;;;;1.53;0.97;;;7.00;59.30;;;;;;5090391;28;20737;-64
2023/03/28 01:49:10;;;;;;;1.03;0.90;;;7.00;60.00;;;;;;5091158;28;20218;-64
2023/03/28 01:51:47;;;;;;;0.70;0.70;;;7.00;60.00;;;;;;5106771;28;20235;-64
2023/03/28 01:54:23;;;;;;;2.40;0.90;;;7.00;60.60;;;;;;5085129;28;20624;-64
2023/03/28 01:57:09;;;;;;;1.40;0.90;;;6.90;60.30;;;;;;5106517;28;20235;-64
2023/03/28 02:00:18;;;;;;;0.77;0.70;;;6.90;60.60;;;;;;5106331;28;20658;-64
2023/03/28 02:03:17;;;;;;;0.93;0.90;;;6.90;60.80;;;;;;5089805;28;20697;-64
2023/03/28 02:05:56;;;;;;;2.73;1.10;;;6.80;59.60;;;;;;5081370;28;20202;-64
2023/03/28 02:08:31;;;;;;;1.30;0.80;;;6.70;58.70;;;;;;5086935;28;20590;-64
2023/03/28 02:11:22;;;;;;;0.50;0.50;;;6.60;58.60;;;;;;5090861;28;20202;-64
2023/03/28 02:14:21;;;;;;;1.03;0.93;;;6.60;58.90;;;;;;5098768;28;20198;-64
2023/03/28 02:17:00;;;;;;;0.87;0.87;;;6.60;59.60;;;;;;5090523;28;20203;-64
2023/03/28 02:20:07;;;;;;;1.70;1.00;;;6.60;60.10;;;;;;5051301;28;20700;-64
2023/03/28 02:23:06;;;;;;;1.23;0.83;;;6.60;59.10;;;;;;5082558;28;20255;-64
2023/03/28 02:26:01;;;;;;;0.97;0.80;;;6.50;58.40;;;;;;5102496;28;20212;-64
2023/03/28 02:28:55;;;;;;;0.90;0.90;;;6.50;58.10;;;;;;5091807;28;20231;-64
2023/03/28 02:31:35;;;;;;;0.77;0.70;;;6.50;57.30;;;;;;5090159;28;20197;-64
2023/03/28 02:34:02;;;;;;;6.23;1.97;;;6.50;57.50;;;;;;5090130;28;20214;-64
2023/03/28 02:36:47;;;;;;;1.60;0.80;;;6.40;57.70;;;;;;5088335;28;20213;-64
2023/03/28 02:39:17;;;;;;;1.30;0.87;;;6.40;58.20;;;;;;5090209;28;20216;-66
2023/03/28 02:41:52;;;;;;;1.13;0.90;;;6.30;57.70;;;;;;5091782;28;20205;-63
2023/03/28 02:44:54;;;;;;;0.70;0.70;;;6.30;58.70;;;;;;5089350;28;20244;-64
2023/03/28 02:47:37;;;;;;;3.17;1.20;;;6.30;60.00;;;;;;5088743;28;20196;-64
2023/03/28 02:50:31;;;;;;;1.67;1.13;;;6.20;60.00;;;;;;5091807;28;20531;-64
2023/03/28 02:53:11;;;;;;;1.27;1.13;;;6.20;59.70;;;;;;5108349;28;20270;-63
2023/03/28 02:55:56;;;;;;;1.57;1.27;;;6.10;59.50;;;;;;5090989;28;20194;-64
2023/03/28 02:59:03;;;;;;;1.33;1.03;;;6.10;59.50;;;;;;5086488;28;20230;-64
2023/03/28 03:01:30;;;;;;;0.90;0.90;;;6.10;59.20;;;;;;5092042;28;20218;-64
2023/03/28 03:03:57;;;;;;;2.00;1.30;;;6.10;59.60;;;;;;5090327;28;20206;-63
2023/03/28 03:06:24;;;;;;;1.47;1.20;;;6.20;59.80;;;;;;5085912;28;20273;-63
2023/03/28 03:08:51;;;;;;;2.93;1.20;;;6.20;59.60;;;;;;5091683;28;20641;-64
2023/03/28 03:11:20;;;;;;;4.20;1.37;;;6.20;59.30;;;;;;5085378;28;20650;-64
2023/03/28 03:13:48;;;;;;;2.37;1.37;;;6.10;59.40;;;;;;5091306;28;20208;-63
2023/03/28 03:16:15;;;;;;;1.77;1.30;;;6.10;59.70;;;;;;5091761;28;20199;-64
2023/03/28 03:18:42;;;;;;;1.53;1.10;;;6.10;59.20;;;;;;5095126;28;20214;-64
2023/03/28 03:21:09;;;;;;;1.63;1.30;;;6.10;58.50;;;;;;5094995;28;20194;-63
2023/03/28 03:23:40;;;;;;;1.30;1.20;;;6.10;58.50;;;;;;5088955;28;20263;-64
2023/03/28 03:26:07;;;;;;;1.30;1.20;;;6.10;59.80;;;;;;5096218;28;20250;-64
2023/03/28 03:28:40;;;;;;;1.90;1.40;;;6.10;60.70;;;;;;5090983;28;20673;-63
2023/03/28 03:31:08;;;;;;;1.37;1.27;;;6.00;61.60;;;;;;5093626;28;20210;-64
2023/03/28 03:33:53;;;;;;;3.10;1.63;;;6.00;62.40;;;;;;5089345;28;20203;-64
2023/03/28 03:36:29;;;;;;;3.23;1.73;;;6.00;62.30;;;;;;5075068;28;20542;-64
2023/03/28 03:38:58;;;;;;;1.20;1.10;;;5.90;61.70;;;;;;5094517;28;20308;-64
2023/03/28 03:41:26;;;;;;;1.27;1.17;;;5.80;61.80;;;;;;5094876;28;20193;-64
2023/03/28 03:43:53;;;;;;;1.60;1.40;;;5.70;62.90;;;;;;5095754;28;20216;-63
2023/03/28 03:46:21;;;;;;;6.13;1.40;;;5.70;63.10;;;;;;5091516;28;20229;-64
2023/03/28 03:48:50;;;;;;;2.50;1.40;;;5.70;63.60;;;;;;5092610;28;20216;-64
2023/03/28 03:51:17;;;;;;;2.73;1.80;;;5.60;63.80;;;;;;5093460;28;20197;-64
2023/03/28 03:53:49;;;;;;;6.53;2.03;;;5.60;64.10;;;;;;5086174;28;20205;-64
2023/03/28 03:56:18;;;;;;;1.50;1.37;;;5.50;64.10;;;;;;5091362;28;20657;-64
2023/03/28 03:59:03;;;;;;;3.07;1.33;;;5.50;64.30;;;;;;5084926;28;20205;-63
2023/03/28 04:01:32;;;;;;;1.60;1.40;;;5.40;64.50;;;;;;5091868;28;20288;-64
2023/03/28 04:04:18;;;;;;;2.07;1.30;;;5.40;64.30;;;;;;5092132;28;20262;-63
2023/03/28 04:07:04;;;;;;;3.40;1.30;;;5.30;64.50;;;;;;5094102;28;20211;-64
2023/03/28 04:09:32;;;;;;;2.27;1.33;;;5.30;64.70;;;;;;5094540;28;20245;-63
2023/03/28 04:12:03;;;;;;;1.57;1.47;;;5.30;65.00;;;;;;5100240;28;20662;-63
2023/03/28 04:14:33;;;;;;;1.90;1.40;;;5.30;65.60;;;;;;5094653;28;20274;-64
2023/03/28 04:17:20;;;;;;;1.57;1.40;;;5.30;65.40;;;;;;5090893;28;20331;-63
2023/03/28 04:19:48;;;;;;;2.57;1.50;;;5.30;65.20;;;;;;5091182;28;20185;-66
2023/03/28 04:22:17;;;;;;;2.87;1.57;;;5.30;65.10;;;;;;5092119;28;20284;-63
2023/03/28 04:24:52;;;;;;;2.50;1.50;;;5.30;64.50;;;;;;5091423;28;20236;-63
2023/03/28 04:27:35;;;;;;;2.90;1.97;;;5.30;64.60;;;;;;5093070;28;20201;-65
2023/03/28 04:30:02;;;;;;;1.97;1.17;;;5.30;65.20;;;;;;5109818;28;20263;-64
2023/03/28 04:32:53;;;;;;;1.57;1.40;;;5.20;65.60;;;;;;5072121;28;20197;-64
2023/03/28 04:35:24;;;;;;;3.30;1.80;;;5.20;65.60;;;;;;5093167;28;20233;-64
2023/03/28 04:37:52;;;;;;;3.53;1.90;;;5.20;65.90;;;;;;5085126;28;20610;-63
2023/03/28 04:40:20;;;;;;;1.97;1.60;;;5.10;66.30;;;;;;5094143;28;20209;-63
2023/03/28 04:42:58;;;;;;;1.63;1.40;;;5.10;66.20;;;;;;5084615;28;20227;-64
2023/03/28 04:45:32;;;;;;;6.43;2.10;;;5.10;66.30;;;;;;5091757;28;20235;-64
2023/03/28 04:48:10;;;;;;;2.13;1.67;;;5.10;65.20;;;;;;5091543;28;20205;-64
2023/03/28 04:50:38;;;;;;;3.50;1.90;;;5.10;64.70;;;;;;5077171;28;20229;-64
2023/03/28 04:53:05;;;;;;;1.87;1.37;;;5.10;64.80;;;;;;5092517;28;20247;-64
2023/03/28 04:55:32;;;;;;;2.33;1.77;;;5.10;65.20;;;;;;5094047;28;20308;-64
2023/03/28 04:58:09;;;;;;;2.30;1.57;;;5.10;65.70;;;;;;5091317;28;20197;-64
2023/03/28 05:00:38;;;;;;;2.30;1.47;;;5.00;66.10;;;;;;5092027;28;20602;-64
2023/03/28 05:03:34;;;;;;;2.47;1.90;;;5.00;66.10;;;;;;5037434;28;20206;-64
2023/03/28 05:06:03;;;;;;;2.77;1.50;;;5.00;66.30;;;;;;5092178;28;20189;-64
2023/03/28 05:08:31;;;;;;;1.70;1.30;;;5.00;66.40;;;;;;5088277;28;20270;-64
2023/03/28 05:10:59;;;;;;;4.33;1.63;;;5.00;66.20;;;;;;5085711;28;20202;-64
2023/03/28 05:13:27;;;;;;;5.23;1.37;;;5.00;66.10;;;;;;5092413;28;20197;-64
2023/03/28 05:16:09;;;;;;;1.77;1.40;;;5.00;66.00;;;;;;5092139;28;20213;-64
2023/03/28 05:18:51;;;;;;;4.80;1.77;;;5.00;65.70;;;;;;5090748;28;20522;-64
2023/03/28 05:21:24;;;;;;;2.73;1.67;;;4.90;65.20;;;;;;5093000;28;20707;-65
2023/03/28 05:23:52;;;;;;;4.10;1.63;;;5.00;64.90;;;;;;5084480;28;20783;-64
2023/03/28 05:26:21;;;;;;;2.93;1.53;;;5.00;65.00;;;;;;5083581;28;20224;-64
2023/03/28 05:28:49;;;;;;;5.40;2.00;;;5.00;65.20;;;;;;5088770;28;20222;-64
2023/03/28 05:31:17;;;;;;;2.00;1.43;;;5.10;65.50;;;;;;5093396;28;20202;-64
2023/03/28 05:33:49;;;;;;;2.67;2.00;;;5.20;66.00;;;;;;5092363;28;20209;-64
2023/03/28 05:36:28;;;;;;;3.53;1.73;;;5.30;66.20;;;;;;5087387;28;20637;-64
2023/03/28 05:38:56;;;;;;;3.43;1.80;;;5.40;66.20;;;;;;5103542;27;20205;-64
2023/03/28 05:41:25;;;;;;;4.83;1.57;;;5.50;66.40;;;;;;5092407;28;20206;-64
2023/03/28 05:43:52;;;;;;;2.33;1.47;;;5.60;66.70;;;;;;5088316;28;20270;-64
2023/03/28 05:46:34;;;;;;;6.90;1.60;;;5.70;67.60;;;;;;5102324;28;20220;-64
2023/03/28 05:49:01;;;;;;;2.60;1.77;;;5.80;66.70;;;;;;5091803;28;20255;-64
2023/03/28 05:51:28;;;;;;;3.97;1.60;;;5.90;66.20;;;;;;5090674;28;20199;-64
2023/03/28 05:53:57;;;;;;;4.30;1.80;;;6.00;66.00;;;;;;5082144;28;20545;-64
2023/03/28 05:56:24;;;;;;;3.40;1.80;;;6.10;65.50;;;;;;5091427;28;20548;-64
2023/03/28 05:58:51;;;;;;;5.77;3.10;;;6.20;65.40;;;;;;5092418;28;20286;-63
2023/03/28 06:01:22;;;;;;;3.03;2.10;;;6.30;65.10;;;;;;5092407;28;20579;-64
2023/03/28 06:03:57;;;;;;;3.23;2.00;;;6.40;65.20;;;;;;5086877;28;20636;-64
2023/03/28 06:06:24;;;;;;;3.67;2.20;;;6.60;65.20;;;;;;5084588;28;20206;-64
2023/03/28 06:08:51;;;;;;;5.77;2.13;;;6.70;64.70;;;;;;5090352;28;20229;-64
2023/03/28 06:11:19;;;;;;;3.13;1.63;;;6.90;64.10;;;;;;5091035;28;20197;-64
2023/03/28 06:14:07;;;;;;;2.73;1.97;;;7.00;63.80;;;;;;5089103;28;20266;-64
2023/03/28 06:16:36;;;;;;;4.60;1.90;;;7.20;63.10;;;;;;5090443;28;20203;-64
2023/03/28 06:19:04;;;;;;;6.23;1.60;;;7.40;62.30;;;;;;5091704;28;20198;-64
2023/03/28 06:21:49;;;;;;;2.20;1.67;;;7.60;61.20;;;;;;5092285;28;20645;-64
2023/03/28 06:24:17;;;;;;;2.43;1.90;;;7.80;60.70;;;;;;5093785;28;20207;-64
2023/03/28 06:26:45;;;;;;;2.33;1.70;;;8.00;60.20;;;;;;5106013;28;20209;-64
2023/03/28 06:29:16;;;;;;;3.53;1.60;;;8.30;59.80;;;;;;5086950;28;20659;-64
2023/03/28 06:31:45;;;;;;;1.93;1.47;;;8.40;59.20;;;;;;5085092;28;20209;-64
2023/03/28 06:34:12;;;;;;;6.60;1.70;;;8.50;58.90;;;;;;5089120;28;20237;-65
2023/03/28 06:36:50;;;;;;;3.33;2.67;;;8.60;58.70;;;;;;5092108;28;20198;-64
2023/03/28 06:39:17;;;;;;;3.87;1.40;;;8.60;58.40;;;;;;5090641;28;20236;-64
2023/03/28 06:41:45;;;;;;;1.83;1.33;;;8.70;57.80;;;;;;5090102;28;20262;-64
2023/03/28 06:44:12;;;;;;;3.17;1.60;;;8.80;57.20;;;;;;5092644;28;20202;-64
2023/03/28 06:47:05;;;;;;;2.67;1.40;;;8.80;57.20;;;;;;5089696;28;20272;-64
2023/03/28 06:49:32;;;;;;;2.20;1.97;;;9.00;57.30;;;;;;5112938;28;20257;-64
2023/03/28 06:52:18;;;;;;;5.73;1.97;;;9.10;57.40;;;;;;5096443;28;20201;-63
2023/03/28 06:54:47;;;;;;;10.27;1.80;;;9.20;57.80;;;;;;5095689;28;20210;-64
2023/03/28 06:57:15;;;;;;;5.13;1.73;;;9.30;57.90;;;;;;5095292;28;20585;-63
2023/03/28 06:59:43;;;;;;;2.20;1.57;;;9.50;58.00;;;;;;5094771;28;20222;-64
2023/03/28 07:02:17;;;;;;;2.93;1.50;;;9.60;57.90;;;;;;5112112;28;20222;-64
2023/03/28 07:04:45;;;;;;;2.07;1.50;;;9.70;57.30;;;;;;5094224;28;20228;-64
2023/03/28 07:07:13;;;;;;;4.37;1.40;;;9.80;56.90;;;;;;5093702;28;20709;-64
2023/03/28 07:09:41;;;;;;;4.10;1.80;;;9.90;56.20;;;;;;5085736;28;20546;-64
2023/03/28 07:12:10;;;;;;;1.50;1.40;;;10.00;56.00;;;;;;5095274;28;20202;-65
2023/03/28 07:14:39;;;;;;;3.07;1.50;;;10.20;55.90;;;;;;5078422;28;20201;-64
2023/03/28 07:17:06;;;;;;;3.37;1.23;;;10.30;55.70;;;;;;5086403;28;20192;-64
2023/03/28 07:19:33;;;;;;;2.03;1.37;;;10.40;55.60;;;;;;5100792;28;20205;-64
2023/03/28 07:22:00;;;;;;;3.40;1.43;;;10.60;54.80;;;;;;5094210;28;20197;-64
2023/03/28 07:24:28;;;;;;;2.20;1.40;;;10.60;54.00;;;;;;5095002;28;20227;-64
2023/03/28 07:27:04;;;;;;;1.93;1.27;;;10.80;53.70;;;;;;5096130;28;20666;-64
2023/03/28 07:29:42;;;;;;;4.97;1.60;;;10.90;53.50;;;;;;5093429;28;20225;-64
2023/03/28 07:32:10;;;;;;;2.60;1.57;;;11.00;53.10;;;;;;5091857;28;20638;-64
2023/03/28 07:34:37;;;;;;;4.80;1.10;;;11.10;53.20;;;;;;5092731;28;21292;-64
2023/03/28 07:37:07;;;;;;;5.73;1.63;;;11.30;52.70;;;;;;5091922;28;20263;-64
2023/03/28 07:39:55;;;;;;;2.97;1.20;;;11.40;51.80;;;;;;5085877;28;20197;-64
2023/03/28 07:42:26;;;;;;;1.83;1.40;;;11.50;51.30;;;;;;5095221;28;20656;-64
2023/03/28 07:44:54;;;;;;;1.37;1.20;;;11.70;51.30;;;;;;5092722;28;20250;-64
2023/03/28 07:47:21;;;;;;;1.23;1.10;;;11.80;51.20;;;;;;5091624;28;20224;-64
2023/03/28 07:49:48;;;;;;;2.47;1.60;;;12.00;51.30;;;;;;5094056;28;20275;-65
2023/03/28 07:52:15;;;;;;;1.37;1.10;;;12.10;50.80;;;;;;5094860;28;20971;-64
2023/03/28 07:54:42;;;;;;;4.20;1.50;;;12.30;51.20;;;;;;5092423;28;20200;-64
2023/03/28 07:57:09;;;;;;;1.90;1.40;;;12.40;51.30;;;;;;5095284;28;20636;-64
2023/03/28 07:59:44;;;;;;;2.03;1.20;;;12.60;51.30;;;;;;5094255;28;20265;-64
2023/03/28 08:02:12;;;;;;;3.87;1.60;;;12.70;51.30;;;;;;5091970;28;20248;-64
2023/03/28 08:04:39;;;;;;;2.10;1.63;;;12.90;51.20;;;;;;5093339;28;20528;-64
2023/03/28 08:07:09;;;;;;;1.90;1.63;;;13.10;51.20;;;;;;5093818;28;20225;-65
2023/03/28 08:09:37;;;;;;;2.83;1.50;;;13.20;49.30;;;;;;5093841;28;20562;-64
2023/03/28 08:12:11;;;;;;;1.97;1.20;;;13.30;49.20;;;;;;5093058;28;20203;-64
2023/03/28 08:14:38;;;;;;;1.73;1.13;;;13.50;49.50;;;;;;5090910;28;20201;-64
2023/03/28 08:17:05;;;;;;;1.47;1.37;;;13.70;48.40;;;;;;5089971;28;20205;-64
2023/03/28 08:19:32;;;;;;;1.87;1.27;;;13.90;47.70;;;;;;5094888;28;20523;-64
2023/03/28 08:22:22;;;;;;;1.40;1.20;;;14.00;47.60;;;;;;5093259;28;20291;-64
2023/03/28 08:24:57;;;;;;;5.27;1.30;;;14.10;46.40;;;;;;5092630;28;20208;-64
2023/03/28 08:27:24;;;;;;;5.70;1.33;;;14.30;47.00;;;;;;5086979;28;20225;-64
2023/03/28 08:29:57;;;;;;;5.47;1.40;;;14.40;46.20;;;;;;5091179;28;20224;-64
2023/03/28 08:32:25;;;;;;;6.33;1.70;;;14.50;45.90;;;;;;5090415;28;20213;-65
2023/03/28 08:34:56;;;;;;;2.83;2.20;;;14.70;46.40;;;;;;5093769;28;20189;-64
2023/03/28 08:37:26;;;;;;;3.53;2.40;;;14.80;46.70;;;;;;5092992;28;20629;-63
2023/03/28 08:39:55;;;;;;;1.83;1.47;;;14.90;47.00;;;;;;5094244;28;20234;-64
2023/03/28 08:42:54;;;;;;;2.13;1.30;;;15.10;46.50;;;;;;5092532;28;20212;-64
2023/03/28 08:45:37;;;;;;;2.13;1.53;;;15.20;45.20;;;;;;5093718;28;20245;-64
2023/03/28 08:48:33;;;;;;;3.40;2.20;;;15.40;45.30;;;;;;5090661;28;20266;-65
2023/03/28 08:51:20;;;;;;;2.77;1.20;;;15.50;44.90;;;;;;5092240;28;20303;-64
2023/03/28 08:54:15;;;;;;;2.67;1.40;;;15.70;45.00;;;;;;5088287;28;20641;-64
2023/03/28 08:56:47;;;;;;;1.33;1.23;;;15.90;43.80;;;;;;5093596;28;20409;-64
2023/03/28 08:59:17;;;;;;;2.30;1.23;;;16.00;42.40;;;;;;5093439;28;20217;-66
2023/03/28 09:01:46;;;;;;;1.80;1.00;;;16.10;42.80;;;;;;5093927;28;20634;-65
2023/03/28 09:04:27;;;;;;;1.70;0.90;;;16.10;41.30;;;;;;5091673;28;20197;-67
2023/03/28 09:07:29;;;;;;;2.47;1.10;;;16.20;41.70;;;;;;5090435;28;20209;-62
2023/03/28 09:10:15;;;;;;;2.80;1.10;;;16.30;41.00;;;;;;5085979;28;20291;-63
2023/03/28 09:13:09;;;;;;;2.37;1.03;;;16.40;40.60;;;;;;5090180;28;20205;-66
2023/03/28 09:15:48;;;;;;;1.77;1.43;;;16.50;40.90;;;;;;5091082;28;20193;-62
2023/03/28 09:18:27;;;;;;;2.90;1.27;;;16.60;41.90;;;;;;5091905;28;20226;-63
2023/03/28 09:21:10;;;;;;;3.63;1.67;;;16.70;41.00;;;;;;5093224;28;20205;-65
2023/03/28 09:24:06;;;;;;;1.53;1.00;;;16.80;39.50;;;;;;5093195;28;20242;-67
2023/03/28 09:26:58;;;;;;;1.13;1.00;;;16.90;39.70;;;;;;5092191;28;20211;-65
2023/03/28 09:29:26;;;;;;;2.57;1.33;;;17.00;39.60;;;;;;5091963;28;20208;-67
2023/03/28 09:32:11;;;;;;;1.60;1.00;;;17.10;39.60;;;;;;5093876;28;20264;-65
2023/03/28 09:34:47;;;;;;;2.47;1.20;;;17.20;39.50;;;;;;5091749;28;20203;-63
2023/03/28 09:37:24;;;;;;;2.33;1.10;;;17.30;38.60;;;;;;5106162;28;20215;-62
2023/03/28 09:39:55;;;;;;;2.20;1.23;;;17.30;36.40;;;;;;5092340;28;20232;-61
2023/03/28 09:42:35;;;;;;;1.37;1.03;;;17.30;37.20;;;;;;5076160;28;20266;-64
2023/03/28 09:45:35;;;;;;;0.83;0.83;;;17.30;38.30;;;;;;5100278;28;20251;-61
2023/03/28 09:48:27;;;;;;;2.73;1.33;;;17.30;37.80;;;;;;5091329;28;20213;-64
2023/03/28 09:51:00;;;;;;;1.87;0.93;;;17.50;37.70;;;;;;5090868;28;20260;-63
2023/03/28 09:53:32;;;;;;;1.53;1.10;;;17.60;37.60;;;;;;5088875;28;20201;-61
2023/03/28 09:56:07;;;;;;;0.97;0.90;;;17.70;38.30;;;;;;5091809;28;20190;-63
2023/03/28 09:59:10;;;;;;;1.23;1.10;;;17.80;38.40;;;;;;5087031;28;20220;-63
2023/03/28 10:01:46;;;;;;;1.57;0.97;;;17.90;37.80;;;;;;5091304;28;20218;-65
2023/03/28 10:04:36;;;;;;;1.53;1.13;;;18.00;37.60;;;;;;5090720;28;20641;-64
2023/03/28 10:07:41;;;;;;;1.37;1.20;;;18.00;36.90;;;;;;5092487;28;20231;-65
2023/03/28 10:10:32;;;;;;;2.23;1.00;;;18.20;36.40;;;;;;5087505;28;20657;-64
2023/03/28 10:13:04;;;;;;;0.87;0.80;;;18.30;35.40;;;;;;5092012;28;20572;-63
2023/03/28 10:15:41;;;;;;;1.73;1.17;;;18.40;35.50;;;;;;5090634;28;20254;-64
2023/03/28 10:18:29;;;;;;;1.23;0.90;;;18.50;35.60;;;;;;5090218;28;20218;-63
2023/03/28 10:21:19;;;;;;;2.07;1.10;;;18.60;34.30;;;;;;5089481;28;20207;-65
2023/03/28 10:24:03;;;;;;;1.70;1.20;;;18.60;34.70;;;;;;5105356;28;20212;-62
2023/03/28 10:26:30;;;;;;;1.07;0.97;;;18.60;34.60;;;;;;5091501;28;20211;-62
2023/03/28 10:29:04;;;;;;;2.50;1.40;;;18.70;35.30;;;;;;5091125;28;20208;-62
2023/03/28 10:31:32;;;;;;;1.10;1.00;;;18.70;36.10;;;;;;5090519;28;20226;-62
2023/03/28 10:34:35;;;;;;;0.73;0.73;;;18.70;35.70;;;;;;5078208;28;20269;-63
2023/03/28 10:37:26;;;;;;;1.37;1.07;;;18.80;35.70;;;;;;5091561;28;20219;-64
2023/03/28 10:40:18;;;;;;;1.30;1.20;;;18.80;36.30;;;;;;5090731;28;20214;-66
2023/03/28 10:43:18;;;;;;;2.80;1.13;;;18.90;35.80;;;;;;5079740;28;20220;-62
2023/03/28 10:46:20;;;;;;;0.90;0.90;;;18.80;35.50;;;;;;5076927;28;20243;-63
2023/03/28 10:49:15;;;;;;;1.07;0.90;;;18.90;36.50;;;;;;5091145;28;20212;-64
2023/03/28 10:51:49;;;;;;;2.10;1.00;;;19.00;34.70;;;;;;5079459;28;20227;-63
2023/03/28 10:54:48;;;;;;;2.20;0.97;;;19.00;34.80;;;;;;5082415;28;20282;-66
2023/03/28 10:57:58;;;;;;;1.53;0.83;;;19.10;34.50;;;;;;5102364;28;20667;-64
2023/03/28 11:00:35;;;;;;;1.63;1.00;;;19.20;34.60;;;;;;5090492;28;20204;-64
2023/03/28 11:03:27;;;;;;;1.03;0.90;;;19.30;33.80;;;;;;5091233;28;20269;-65
2023/03/28 11:06:16;;;;;;;2.07;0.97;;;19.40;33.70;;;;;;5083382;28;20648;-63
2023/03/28 11:09:02;;;;;;;1.70;0.77;;;19.40;33.40;;;;;;5092169;28;20208;-65
2023/03/28 11:12:06;;;;;;;1.10;0.70;;;19.40;30.90;;;;;;5108646;28;20548;-66
2023/03/28 11:14:51;;;;;;;1.27;1.10;;;19.30;31.70;;;;;;5083539;28;20205;-64
2023/03/28 11:17:27;;;;;;;0.83;0.83;;;19.40;32.80;;;;;;5091900;28;20264;-62
2023/03/28 11:20:39;;;;;;;2.67;1.10;;;19.40;33.10;;;;;;5091331;28;20193;-63
2023/03/28 11:23:17;;;;;;;0.80;0.80;;;19.50;33.00;;;;;;5065251;28;20537;-64
2023/03/28 11:26:08;;;;;;;1.60;0.90;;;19.60;31.20;;;;;;5087916;28;20208;-64
2023/03/28 11:29:24;;;;;;;1.83;1.00;;;19.50;29.70;;;;;;5080116;28;20626;-65
2023/03/28 11:32:39;;;;;;;0.77;0.77;;;19.30;28.60;;;;;;5104576;28;20307;-63
2023/03/28 11:35:16;;;;;;;1.87;1.20;;;19.10;28.00;;;;;;5104136;28;20233;-64
2023/03/28 11:38:07;;;;;;;0.80;0.80;;;18.90;29.00;;;;;;5090884;28;20223;-65
2023/03/28 11:40:43;;;;;;;0.90;0.87;;;19.00;30.50;;;;;;5094900;28;20207;-64
2023/03/28 11:43:23;;;;;;;0.90;0.77;;;19.10;30.00;;;;;;5074331;28;20638;-65
2023/03/28 11:45:54;;;;;;;2.17;0.97;;;19.10;27.50;;;;;;5089434;28;20232;-64
2023/03/28 11:48:45;;;;;;;2.87;0.97;;;18.90;29.50;;;;;;5090491;28;20589;-67
2023/03/28 11:51:53;;;;;;;2.10;0.90;;;18.80;30.40;;;;;;5109739;27;20232;-63
2023/03/28 11:54:40;;;;;;;2.73;1.13;;;18.80;30.10;;;;;;5094980;28;20535;-66
2023/03/28 11:57:28;;;;;;;1.10;1.00;;;18.80;31.40;;;;;;5107841;28;20232;-67
2023/03/28 12:00:23;;;;;;;0.90;0.90;;;19.00;30.00;;;;;;5090452;28;20201;-62
2023/03/28 12:03:20;;;;;;;2.30;0.90;;;19.00;31.10;;;;;;5092081;28;20215;-65
2023/03/28 12:06:13;;;;;;;1.57;1.03;;;19.20;30.30;;;;;;5093449;28;20274;-64
2023/03/28 12:08:52;;;;;;;0.90;0.90;;;19.30;30.20;;;;;;5087890;28;20200;-65
2023/03/28 12:11:29;;;;;;;2.07;1.03;;;19.40;31.40;;;;;;5109175;28;20214;-63
2023/03/28 12:14:10;;;;;;;1.27;0.83;;;19.50;30.40;;;;;;5101037;28;20291;-63
2023/03/28 12:16:48;;;;;;;2.20;0.97;;;19.60;30.00;;;;;;5109173;27;20678;-63
2023/03/28 12:19:33;;;;;;;1.60;1.30;;;19.70;30.00;;;;;;5078371;28;20690;-64
2023/03/28 12:22:29;;;;;;;3.23;0.80;;;19.70;29.80;;;;;;5092816;28;20223;-63
2023/03/28 12:25:27;;;;;;;1.47;0.90;;;19.80;30.40;;;;;;5093797;28;20251;-63
2023/03/28 12:28:04;;;;;;;1.00;0.90;;;19.80;30.90;;;;;;5092805;28;20593;-63
2023/03/28 12:30:53;;;;;;;0.80;0.80;;;19.80;31.20;;;;;;5111843;27;20216;-63
2023/03/28 12:33:59;;;;;;;2.70;1.17;;;19.80;29.30;;;;;;5091905;28;20215;-63
2023/03/28 12:36:53;;;;;;;1.47;1.10;;;19.70;29.50;;;;;;5090883;28;20198;-63
2023/03/28 12:39:33;;;;;;;0.93;0.93;;;19.40;28.40;;;;;;5089364;28;20209;-64
2023/03/28 12:42:08;;;;;;;0.90;0.73;;;19.30;29.20;;;;;;5094777;28;20200;-64
2023/03/28 12:44:42;;;;;;;2.67;0.90;;;19.30;29.60;;;;;;5090848;28;20272;-62
2023/03/28 12:47:35;;;;;;;1.57;1.10;;;19.30;30.90;;;;;;5104546;28;20208;-63
2023/03/28 12:50:18;;;;;;;1.17;1.00;;;19.40;32.20;;;;;;5087185;28;20220;-63
2023/03/28 12:52:47;;;;;;;2.10;1.00;;;19.50;31.70;;;;;;5092242;28;20226;-62
2023/03/28 12:55:27;;;;;;;1.00;0.93;;;19.60;31.00;;;;;;5091569;28;20201;-64
2023/03/28 12:58:33;;;;;;;1.10;1.00;;;19.60;30.50;;;;;;5093362;28;20193;-65
2023/03/28 13:01:06;;;;;;;1.03;0.90;;;19.70;28.70;;;;;;5091963;28;20598;-63
2023/03/28 13:03:45;;;;;;;1.17;1.00;;;19.60;28.90;;;;;;5091395;28;20232;-64
2023/03/28 13:06:54;;;;;;;0.73;0.70;;;19.60;28.70;;;;;;5074489;28;20610;-63
2023/03/28 13:09:21;;;;;;;3.90;1.10;;;19.60;29.20;;;;;;5093886;28;20205;-61
2023/03/28 13:11:57;;;;;;;1.30;1.20;;;19.70;29.50;;;;;;5093606;28;20213;-63
2023/03/28 13:14:38;;;;;;;2.53;1.27;;;19.70;29.00;;;;;;5093876;28;20215;-62
2023/03/28 13:17:25;;;;;;;1.27;1.00;;;19.70;27.90;;;;;;5091850;28;20244;-65
2023/03/28 13:20:05;;;;;;;1.07;0.97;;;19.60;28.90;;;;;;5091470;28;20197;-64
2023/03/28 13:22:41;;;;;;;1.37;0.83;;;19.60;29.30;;;;;;5093473;28;20200;-66
2023/03/28 13:25:33;;;;;;;1.03;0.93;;;19.60;29.10;;;;;;5091301;28;20191;-64
2023/03/28 13:28:30;;;;;;;1.13;1.07;;;19.60;28.80;;;;;;5091611;28;20201;-66
2023/03/28 13:31:10;;;;;;;1.93;1.27;;;19.50;29.30;;;;;;5089024;28;20205;-62
2023/03/28 13:34:00;;;;;;;0.73;0.73;;;19.50;28.50;;;;;;5093783;28;20197;-66
2023/03/28 13:36:35;;;;;;;1.47;0.90;;;19.40;29.10;;;;;;5088810;28;20207;-63
2023/03/28 13:39:08;;;;;;;1.13;1.00;;;19.40;30.00;;;;;;5091412;28;20195;-61
2023/03/28 13:41:41;;;;;;;1.07;0.93;;;19.40;30.10;;;;;;5091313;28;20215;-65
2023/03/28 13:44:28;;;;;;;0.93;0.93;;;19.40;30.40;;;;;;5094114;28;20699;-63
2023/03/28 13:46:56;;;;;;;2.43;1.20;;;19.50;30.00;;;;;;5087793;28;20212;-64
2023/03/28 13:49:29;;;;;;;1.17;1.07;;;19.60;29.40;;;;;;5092328;28;20205;-61
2023/03/28 13:51:58;;;;;;;1.67;1.20;;;19.60;28.70;;;;;;5092026;28;20212;-63